Time;durP1;ratioP1;P1;durP2;ratioP2;P2;SDS_P1;SDS_P2;PMS_P1;PMS_P2;Temp;Humidity;BMP_temperature;BMP_pressure;BME280_temperature;BME280_humidity;BME280_pressure;Samples;Min_cycle;Max_cycle;Signal;HPM_P1;HPM_P2
2021/07/05 00:02:30;;;;;;;;;;;23.40;44.50;;;;;;8268077;28;19914;-52
2021/07/05 00:06:30;;;;;;;;;;;23.40;44.50;;;;;;8268217;28;19964;-48
2021/07/05 00:10:31;;;;;;;;;;;23.40;44.60;;;;;;8267454;28;19929;-52
2021/07/05 00:14:32;;;;;;;;;;;23.40;44.50;;;;;;8272632;28;19917;-48
2021/07/05 00:18:32;;;;;;;;;;;23.40;44.50;;;;;;8267826;28;20398;-49
2021/07/05 00:22:33;;;;;;;;;;;23.40;44.50;;;;;;8267659;28;19929;-48
2021/07/05 00:26:33;;;;;;;;;;;23.40;44.50;;;;;;8267329;28;19922;-48
2021/07/05 00:30:35;;;;;;;;;;;23.40;44.60;;;;;;8271809;28;19913;-48
2021/07/05 00:34:35;;;;;;;;;;;23.30;44.50;;;;;;8266733;28;19913;-49
2021/07/05 00:38:36;;;;;;;;;;;23.30;44.50;;;;;;8267206;28;19965;-48
2021/07/05 00:42:37;;;;;;;;;;;23.30;44.50;;;;;;8266992;28;19914;-48
2021/07/05 00:46:38;;;;;;;;;;;23.40;44.60;;;;;;8270934;28;19924;-48
2021/07/05 00:50:38;;;;;;;;;;;23.30;44.50;;;;;;8266745;28;19949;-48
2021/07/05 00:54:39;;;;;;;;;;;23.30;44.50;;;;;;8266440;28;20024;-48
2021/07/05 00:58:40;;;;;;;;;;;23.30;44.60;;;;;;8266177;28;20359;-47
2021/07/05 01:02:41;;;;;;;;;;;23.30;44.50;;;;;;8266152;28;20329;-48
2021/07/05 01:06:41;;;;;;;;;;;23.30;44.60;;;;;;8270777;28;20009;-48
2021/07/05 01:10:42;;;;;;;;;;;23.30;44.60;;;;;;8265310;28;19920;-48
2021/07/05 01:14:42;;;;;;;;;;;23.30;44.60;;;;;;8265990;28;19921;-48
2021/07/05 01:18:43;;;;;;;;;;;23.30;44.60;;;;;;8265821;28;19914;-48
2021/07/05 01:22:43;;;;;;;;;;;23.30;44.60;;;;;;8269675;28;19916;-49
2021/07/05 01:26:44;;;;;;;;;;;23.30;44.60;;;;;;8265584;28;19969;-47
2021/07/05 01:30:45;;;;;;;;;;;23.20;44.60;;;;;;8265609;28;19921;-48
2021/07/05 01:34:45;;;;;;;;;;;23.30;44.60;;;;;;8264775;28;19920;-48
2021/07/05 01:38:46;;;;;;;;;;;23.20;44.60;;;;;;8269771;28;19964;-48
2021/07/05 01:42:50;;;;;;;;;;;23.20;44.60;;;;;;8265183;28;20370;-50
2021/07/05 01:46:50;;;;;;;;;;;23.20;44.60;;;;;;8264777;28;19913;-49
2021/07/05 01:50:51;;;;;;;;;;;23.20;44.60;;;;;;8264831;28;19976;-48
2021/07/05 01:54:51;;;;;;;;;;;23.20;44.60;;;;;;8264785;28;19913;-48
2021/07/05 01:58:52;;;;;;;;;;;23.20;44.60;;;;;;8268528;28;19917;-49
2021/07/05 02:02:53;;;;;;;;;;;23.20;44.60;;;;;;8264479;28;19925;-49
2021/07/05 02:06:53;;;;;;;;;;;23.20;44.60;;;;;;8264621;28;19939;-49
2021/07/05 02:10:54;;;;;;;;;;;23.20;44.60;;;;;;8263801;28;19914;-49
2021/07/05 02:14:54;;;;;;;;;;;23.20;44.60;;;;;;8268486;28;19910;-50
2021/07/05 02:18:55;;;;;;;;;;;23.20;44.60;;;;;;8263742;28;19921;-51
2021/07/05 02:22:55;;;;;;;;;;;23.20;44.60;;;;;;8262708;28;19944;-51
2021/07/05 02:26:56;;;;;;;;;;;23.20;44.60;;;;;;8263786;28;19921;-49
2021/07/05 02:30:57;;;;;;;;;;;23.20;44.60;;;;;;8263725;28;19913;-52
2021/07/05 02:34:57;;;;;;;;;;;23.20;44.70;;;;;;8267419;28;19953;-49
2021/07/05 02:38:58;;;;;;;;;;;23.10;44.60;;;;;;8263638;28;20292;-51
2021/07/05 02:42:59;;;;;;;;;;;23.10;44.60;;;;;;8263202;28;19922;-50
2021/07/05 02:46:59;;;;;;;;;;;23.10;44.60;;;;;;8262925;28;19920;-48
2021/07/05 02:51:01;;;;;;;;;;;23.10;44.70;;;;;;8267429;28;19914;-52
2021/07/05 02:55:03;;;;;;;;;;;23.10;44.70;;;;;;8262846;28;20032;-48
2021/07/05 02:59:03;;;;;;;;;;;23.10;44.70;;;;;;8262953;28;19913;-49
2021/07/05 03:03:04;;;;;;;;;;;23.10;44.70;;;;;;8262835;28;19917;-49
2021/07/05 03:07:05;;;;;;;;;;;23.10;44.70;;;;;;8266526;28;20000;-48
2021/07/05 03:11:08;;;;;;;;;;;23.10;44.70;;;;;;8262730;28;19914;-48
2021/07/05 03:15:10;;;;;;;;;;;23.10;44.70;;;;;;8262476;28;20363;-49
2021/07/05 03:19:10;;;;;;;;;;;23.10;44.70;;;;;;8261542;28;19917;-49
2021/07/05 03:23:12;;;;;;;;;;;23.10;44.70;;;;;;8261806;28;20374;-49
2021/07/05 03:27:13;;;;;;;;;;;23.00;44.60;;;;;;8266413;28;19910;-49
2021/07/05 03:31:13;;;;;;;;;;;23.10;44.70;;;;;;8261462;28;20282;-49
2021/07/05 03:35:14;;;;;;;;;;;23.10;44.70;;;;;;8261992;28;19940;-49
2021/07/05 03:39:15;;;;;;;;;;;23.10;44.70;;;;;;8261664;28;19921;-50
2021/07/05 03:43:15;;;;;;;;;;;23.10;44.70;;;;;;8265618;28;19921;-49
2021/07/05 03:47:16;;;;;;;;;;;23.10;44.80;;;;;;8262157;28;19913;-48
2021/07/05 03:51:16;;;;;;;;;;;23.00;44.70;;;;;;8261569;28;19918;-51
2021/07/05 03:55:18;;;;;;;;;;;23.00;44.70;;;;;;8260981;28;19967;-50
2021/07/05 03:59:19;;;;;;;;;;;23.00;44.70;;;;;;8262391;28;20326;-50
2021/07/05 04:03:19;;;;;;;;;;;23.00;44.80;;;;;;8264411;28;19917;-49
2021/07/05 04:07:21;;;;;;;;;;;23.00;44.80;;;;;;8260915;28;19928;-49
2021/07/05 04:11:22;;;;;;;;;;;23.00;44.80;;;;;;8261195;28;19917;-50
2021/07/05 04:15:23;;;;;;;;;;;23.00;44.80;;;;;;8261360;28;19960;-50
2021/07/05 04:19:23;;;;;;;;;;;23.00;44.80;;;;;;8265077;28;20315;-50
2021/07/05 04:23:26;;;;;;;;;;;23.00;44.80;;;;;;8261114;28;19925;-48
2021/07/05 04:27:27;;;;;;;;;;;23.00;44.80;;;;;;8261818;28;19910;-50
2021/07/05 04:31:27;;;;;;;;;;;23.00;44.80;;;;;;8253345;28;19929;-49
2021/07/05 04:35:28;;;;;;;;;;;23.00;44.80;;;;;;8233366;28;20333;-47
2021/07/05 04:39:28;;;;;;;;;;;23.00;44.80;;;;;;8259388;28;19914;-49
2021/07/05 04:43:29;;;;;;;;;;;23.00;44.70;;;;;;8260243;28;19921;-49
2021/07/05 04:47:29;;;;;;;;;;;23.00;44.80;;;;;;8264671;28;19917;-49
2021/07/05 04:51:30;;;;;;;;;;;23.00;44.80;;;;;;8266945;28;19977;-52
2021/07/05 04:55:31;;;;;;;;;;;23.00;44.80;;;;;;8270623;28;19928;-48
2021/07/05 04:59:32;;;;;;;;;;;23.00;44.80;;;;;;8242735;28;19924;-48
2021/07/05 05:03:32;;;;;;;;;;;22.90;44.80;;;;;;8249376;28;19976;-48
2021/07/05 05:07:33;;;;;;;;;;;23.00;44.80;;;;;;8266113;28;20421;-49
2021/07/05 05:11:33;;;;;;;;;;;23.00;44.80;;;;;;8270475;28;20295;-49
2021/07/05 05:15:34;;;;;;;;;;;23.00;44.80;;;;;;8265420;28;19914;-49
2021/07/05 05:19:34;;;;;;;;;;;22.90;44.80;;;;;;8265371;28;19920;-49
2021/07/05 05:23:35;;;;;;;;;;;22.90;44.80;;;;;;8265794;28;19964;-47
2021/07/05 05:27:35;;;;;;;;;;;23.00;44.90;;;;;;8270258;28;20005;-49
2021/07/05 05:31:36;;;;;;;;;;;23.00;44.90;;;;;;8265052;28;19928;-50
2021/07/05 05:35:36;;;;;;;;;;;23.00;44.90;;;;;;8265416;28;19924;-49
2021/07/05 05:39:37;;;;;;;;;;;22.90;44.80;;;;;;8265407;28;19914;-51
2021/07/05 05:43:37;;;;;;;;;;;23.00;44.90;;;;;;8264864;28;19953;-50
2021/07/05 05:47:38;;;;;;;;;;;22.90;44.90;;;;;;8269710;28;19932;-52
2021/07/05 05:51:38;;;;;;;;;;;22.90;44.90;;;;;;8265327;28;19956;-48
2021/07/05 05:55:43;;;;;;;;;;;22.90;44.90;;;;;;8264217;28;19964;-48
2021/07/05 05:59:44;;;;;;;;;;;22.90;44.90;;;;;;8264992;28;20385;-48
2021/07/05 06:03:44;;;;;;;;;;;22.90;45.00;;;;;;8268892;28;19921;-50
2021/07/05 06:07:50;;;;;;;;;;;22.90;45.00;;;;;;8263951;28;19952;-52
2021/07/05 06:11:50;;;;;;;;;;;22.90;45.00;;;;;;8264322;28;20375;-52
2021/07/05 06:15:51;;;;;;;;;;;22.90;45.00;;;;;;8264206;28;19920;-52
2021/07/05 06:19:51;;;;;;;;;;;22.90;45.00;;;;;;8263668;28;19976;-49
2021/07/05 06:23:54;;;;;;;;;;;22.90;45.00;;;;;;8268246;28;19926;-51
2021/07/05 06:27:55;;;;;;;;;;;22.90;45.00;;;;;;8263622;28;19917;-51
2021/07/05 06:31:55;;;;;;;;;;;22.90;45.00;;;;;;8278467;28;20437;-50
2021/07/05 06:35:56;;;;;;;;;;;22.90;45.00;;;;;;8263147;28;19968;-53
2021/07/05 06:39:56;;;;;;;;;;;22.90;45.10;;;;;;8267946;28;19914;-51
2021/07/05 06:43:57;;;;;;;;;;;22.90;45.00;;;;;;8262644;28;20012;-48
2021/07/05 06:47:58;;;;;;;;;;;22.90;45.00;;;;;;8263125;28;19914;-50
2021/07/05 06:51:59;;;;;;;;;;;22.90;45.00;;;;;;8263090;28;19932;-53
2021/07/05 06:55:59;;;;;;;;;;;22.90;45.00;;;;;;8266889;28;20264;-50
2021/07/05 07:00:01;;;;;;;;;;;22.90;45.00;;;;;;8262741;28;20419;-50
2021/07/05 07:04:02;;;;;;;;;;;22.90;45.00;;;;;;8262180;28;20398;-53
2021/07/05 07:08:03;;;;;;;;;;;22.90;45.00;;;;;;8262033;28;19921;-53
2021/07/05 07:12:03;;;;;;;;;;;22.90;45.00;;;;;;8263146;28;19914;-53
2021/07/05 07:16:04;;;;;;;;;;;22.90;45.00;;;;;;8266583;28;20004;-50
2021/07/05 07:20:06;;;;;;;;;;;22.90;45.00;;;;;;8262122;28;19920;-50
2021/07/05 07:24:06;;;;;;;;;;;22.90;45.00;;;;;;8262007;28;19925;-50
2021/07/05 07:28:07;;;;;;;;;;;22.90;45.00;;;;;;8261573;28;20430;-51
2021/07/05 07:32:07;;;;;;;;;;;22.90;45.00;;;;;;8266595;28;20359;-50
2021/07/05 07:36:09;;;;;;;;;;;22.80;45.00;;;;;;8262547;28;20382;-50
2021/07/05 07:40:18;;;;;;;;;;;22.90;45.00;;;;;;8261518;28;19913;-55
2021/07/05 07:44:19;;;;;;;;;;;22.90;45.00;;;;;;8261910;28;20007;-54
2021/07/05 07:48:19;;;;;;;;;;;22.90;45.00;;;;;;8261547;28;19937;-51
2021/07/05 07:52:20;;;;;;;;;;;22.80;45.00;;;;;;8265528;28;19914;-52
2021/07/05 07:56:20;;;;;;;;;;;22.90;45.00;;;;;;8261818;28;20389;-50
2021/07/05 08:00:21;;;;;;;;;;;22.90;45.00;;;;;;8261458;28;19936;-53
2021/07/05 08:04:22;;;;;;;;;;;22.90;45.00;;;;;;8261298;28;20355;-52
2021/07/05 08:08:22;;;;;;;;;;;22.90;45.00;;;;;;8265927;28;19926;-50
2021/07/05 08:12:23;;;;;;;;;;;22.90;45.10;;;;;;8261123;28;19922;-51
2021/07/05 08:16:24;;;;;;;;;;;22.90;45.00;;;;;;8260792;28;19925;-52
2021/07/05 08:20:24;;;;;;;;;;;22.90;45.00;;;;;;8262021;28;20000;-49
2021/07/05 08:24:25;;;;;;;;;;;22.90;45.00;;;;;;8271870;28;20287;-51
2021/07/05 08:28:27;;;;;;;;;;;23.00;45.10;;;;;;8235559;28;20356;-52
2021/07/05 08:32:27;;;;;;;;;;;22.90;45.00;;;;;;8257609;28;19913;-49
2021/07/05 08:36:28;;;;;;;;;;;22.90;45.00;;;;;;8267153;28;20387;-53
2021/07/05 08:40:28;;;;;;;;;;;23.00;45.10;;;;;;8266467;28;19914;-49
2021/07/05 08:44:29;;;;;;;;;;;23.00;45.10;;;;;;8271364;28;20008;-49
2021/07/05 08:48:35;;;;;;;;;;;22.90;45.00;;;;;;8266865;28;19982;-51
2021/07/05 08:52:38;;;;;;;;;;;22.90;45.10;;;;;;8266010;28;20256;-49
2021/07/05 08:56:38;;;;;;;;;;;22.90;45.10;;;;;;8266726;28;19913;-52
2021/07/05 09:00:39;;;;;;;;;;;22.90;45.10;;;;;;8271019;28;19925;-51
2021/07/05 09:04:40;;;;;;;;;;;23.00;45.10;;;;;;8266371;28;20272;-51
2021/07/05 09:08:42;;;;;;;;;;;23.00;45.10;;;;;;8266538;28;19922;-50
2021/07/05 09:12:43;;;;;;;;;;;22.90;45.10;;;;;;8265585;28;20451;-52
2021/07/05 09:16:44;;;;;;;;;;;22.90;45.10;;;;;;8265569;28;19977;-49
2021/07/05 09:20:45;;;;;;;;;;;23.00;45.10;;;;;;8270444;28;20314;-50
2021/07/05 09:24:45;;;;;;;;;;;22.90;45.10;;;;;;8265741;28;19929;-48
2021/07/05 09:28:46;;;;;;;;;;;22.90;45.10;;;;;;8265035;28;19914;-53
2021/07/05 09:32:48;;;;;;;;;;;23.00;45.20;;;;;;8265130;28;19921;-51
2021/07/05 09:36:50;;;;;;;;;;;23.00;45.10;;;;;;8269868;28;19997;-49
2021/07/05 09:40:50;;;;;;;;;;;23.00;45.20;;;;;;8264796;28;19945;-51
2021/07/05 09:44:51;;;;;;;;;;;23.00;45.20;;;;;;8265061;28;19922;-51
2021/07/05 09:48:51;;;;;;;;;;;23.00;45.10;;;;;;8264897;28;20379;-50
2021/07/05 09:52:52;;;;;;;;;;;23.00;45.20;;;;;;8268748;28;19976;-51
2021/07/05 09:56:55;;;;;;;;;;;23.00;45.20;;;;;;8265088;28;19924;-48
2021/07/05 10:00:56;;;;;;;;;;;23.00;45.30;;;;;;8265276;28;19913;-49
2021/07/05 10:05:14;;;;;;;;;;;23.00;45.20;;;;;;8263839;28;19922;-49
2021/07/05 10:09:20;;;;;;;;;;;23.00;45.20;;;;;;8263561;28;19914;-49
2021/07/05 10:13:20;;;;;;;;;;;23.00;45.20;;;;;;8268280;28;19949;-49
2021/07/05 10:17:22;;;;;;;;;;;23.00;45.20;;;;;;8264265;28;19914;-52
2021/07/05 10:21:22;;;;;;;;;;;23.00;45.20;;;;;;8264104;28;19917;-49
2021/07/05 10:25:23;;;;;;;;;;;23.00;45.20;;;;;;8263382;28;19932;-50
2021/07/05 10:29:24;;;;;;;;;;;23.00;45.20;;;;;;8264913;28;19918;-49
2021/07/05 10:33:25;;;;;;;;;;;23.00;45.20;;;;;;8235991;28;19920;-49
2021/07/05 10:37:34;;;;;;;;;;;23.00;45.20;;;;;;8253990;28;19914;-48
2021/07/05 10:41:37;;;;;;;;;;;23.10;45.20;;;;;;8263357;28;19918;-49
2021/07/05 10:45:42;;;;;;;;;;;23.00;45.20;;;;;;8262172;28;19925;-49
2021/07/05 10:49:46;;;;;;;;;;;23.00;45.10;;;;;;8267074;28;20275;-48
2021/07/05 10:53:46;;;;;;;;;;;23.10;45.10;;;;;;8263143;28;19914;-51
2021/07/05 10:57:48;;;;;;;;;;;23.10;45.10;;;;;;8262915;28;19933;-51
2021/07/05 11:01:49;;;;;;;;;;;23.10;45.10;;;;;;8252122;28;19918;-50
2021/07/05 11:05:51;;;;;;;;;;;23.10;45.10;;;;;;8231791;28;20360;-50
2021/07/05 11:09:56;;;;;;;;;;;23.10;45.10;;;;;;8267035;28;19914;-50
2021/07/05 11:14:15;;;;;;;;;;;23.10;45.10;;;;;;8262126;28;19975;-50
2021/07/05 11:18:34;;;;;;;;;;;23.10;45.10;;;;;;8262399;28;19921;-50
2021/07/05 11:22:38;;;;;;;;;;;23.10;45.10;;;;;;8262020;28;20383;-50
2021/07/05 11:26:40;;;;;;;;;;;23.10;45.20;;;;;;8261886;28;19953;-51
2021/07/05 11:30:41;;;;;;;;;;;23.10;45.20;;;;;;8266573;28;19957;-52
2021/07/05 11:34:46;;;;;;;;;;;23.10;45.30;;;;;;8261422;28;19920;-48
2021/07/05 11:38:59;;;;;;;;;;;23.10;45.40;;;;;;8276776;28;19914;-50
2021/07/05 11:43:00;;;;;;;;;;;23.10;45.30;;;;;;8261199;28;19910;-48
2021/07/05 11:47:00;;;;;;;;;;;23.10;45.30;;;;;;8266276;28;20382;-49
2021/07/05 11:51:00;;;;;;;;;;;23.10;45.30;;;;;;8261676;28;19962;-51
2021/07/05 11:55:01;;;;;;;;;;;23.10;45.30;;;;;;8241315;28;19914;-50
2021/07/05 11:59:04;;;;;;;;;;;23.10;45.20;;;;;;8240023;28;19949;-50
2021/07/05 12:03:06;;;;;;;;;;;23.10;45.20;;;;;;8261336;28;19917;-50
2021/07/05 12:07:14;;;;;;;;;;;23.10;45.20;;;;;;8265558;28;19918;-47
2021/07/05 12:11:25;;;;;;;;;;;23.10;45.20;;;;;;8261054;28;19920;-51
2021/07/05 12:15:26;;;;;;;;;;;23.10;45.30;;;;;;8261266;28;19984;-51
2021/07/05 12:19:28;;;;;;;;;;;23.10;45.30;;;;;;8260469;28;19968;-50
2021/07/05 12:23:35;;;;;;;;;;;23.10;45.20;;;;;;8265435;28;20033;-48
2021/07/05 12:27:36;;;;;;;;;;;23.10;45.30;;;;;;8261087;28;19914;-50
2021/07/05 12:31:48;;;;;;;;;;;23.10;45.30;;;;;;8260731;28;19968;-50
2021/07/05 12:35:49;;;;;;;;;;;23.10;45.30;;;;;;8261301;28;19945;-49
2021/07/05 12:39:51;;;;;;;;;;;23.10;45.30;;;;;;8261010;28;19924;-49
2021/07/05 12:43:51;;;;;;;;;;;23.10;45.30;;;;;;8264721;28;19924;-49
2021/07/05 12:47:54;;;;;;;;;;;23.10;45.30;;;;;;8260897;28;19918;-50
2021/07/05 12:51:54;;;;;;;;;;;23.20;45.20;;;;;;8260914;28;19914;-49
2021/07/05 12:55:56;;;;;;;;;;;23.20;45.20;;;;;;8260211;28;19996;-50
2021/07/05 13:00:01;;;;;;;;;;;23.20;45.20;;;;;;8265172;28;20290;-52
2021/07/05 13:04:06;;;;;;;;;;;23.20;45.20;;;;;;8259985;28;20434;-49
2021/07/05 13:08:07;;;;;;;;;;;23.20;45.20;;;;;;8264258;28;20017;-52
2021/07/05 13:12:15;;;;;;;;;;;23.20;45.20;;;;;;8266159;28;20338;-53
2021/07/05 13:16:16;;;;;;;;;;;23.20;45.20;;;;;;8265758;28;19913;-49
2021/07/05 13:20:17;;;;;;;;;;;23.20;45.20;;;;;;8270353;28;19914;-53
2021/07/05 13:24:24;;;;;;;;;;;23.20;45.30;;;;;;8266001;28;20328;-51
2021/07/05 13:28:24;;;;;;;;;;;23.20;45.20;;;;;;8265168;28;21597;-49
2021/07/05 13:32:26;;;;;;;;;;;23.20;45.30;;;;;;8266035;28;19920;-49
2021/07/05 13:36:27;;;;;;;;;;;23.20;45.20;;;;;;8270073;28;19916;-52
2021/07/05 13:40:28;;;;;;;;;;;23.20;45.10;;;;;;8264900;28;19913;-49
2021/07/05 13:44:29;;;;;;;;;;;23.20;45.10;;;;;;8265209;28;19921;-49
2021/07/05 13:48:36;;;;;;;;;;;23.30;45.20;;;;;;8265204;28;19937;-52
2021/07/05 13:52:38;;;;;;;;;;;23.30;45.30;;;;;;8264510;28;19918;-53
2021/07/05 13:56:39;;;;;;;;;;;23.30;45.20;;;;;;8269317;28;19937;-51
2021/07/05 14:00:41;;;;;;;;;;;23.30;45.20;;;;;;8264654;28;20283;-50
2021/07/05 14:04:42;;;;;;;;;;;23.30;45.20;;;;;;8263922;28;20342;-48
2021/07/05 14:08:45;;;;;;;;;;;23.30;45.20;;;;;;8264877;28;19914;-49
2021/07/05 14:12:45;;;;;;;;;;;23.30;45.30;;;;;;8268813;28;19971;-49
2021/07/05 14:16:46;;;;;;;;;;;23.30;45.20;;;;;;8263858;28;19914;-50
2021/07/05 14:20:46;;;;;;;;;;;23.30;45.10;;;;;;8264326;28;19914;-51
2021/07/05 14:24:47;;;;;;;;;;;23.40;45.00;;;;;;8263666;28;19918;-50
2021/07/05 14:28:47;;;;;;;;;;;23.40;44.90;;;;;;8263211;28;20326;-51
2021/07/05 14:32:48;;;;;;;;;;;23.40;45.60;;;;;;8268037;28;19914;-52
2021/07/05 14:36:49;;;;;;;;;;;23.40;45.00;;;;;;8263594;28;19945;-52
2021/07/05 14:40:49;;;;;;;;;;;23.40;44.90;;;;;;8262785;28;19920;-51
2021/07/05 14:44:50;;;;;;;;;;;23.50;44.90;;;;;;8263159;28;19924;-51
2021/07/05 14:48:50;;;;;;;;;;;23.50;44.90;;;;;;8267565;28;19920;-51
2021/07/05 14:52:52;;;;;;;;;;;23.50;44.90;;;;;;8262691;28;19921;-52
2021/07/05 14:56:52;;;;;;;;;;;23.50;45.00;;;;;;8262853;28;20286;-49
2021/07/05 15:00:53;;;;;;;;;;;23.50;45.20;;;;;;8262798;28;19914;-51
2021/07/05 15:04:53;;;;;;;;;;;23.50;45.00;;;;;;8266440;28;19921;-48
2021/07/05 15:08:54;;;;;;;;;;;23.50;44.80;;;;;;8262730;28;19960;-51
2021/07/05 15:12:56;;;;;;;;;;;23.50;45.10;;;;;;8262440;28;19941;-50
2021/07/05 15:16:57;;;;;;;;;;;23.50;45.10;;;;;;8261932;28;20363;-51
2021/07/05 15:20:57;;;;;;;;;;;23.60;45.00;;;;;;8262306;28;19918;-49
2021/07/05 15:24:58;;;;;;;;;;;23.50;44.90;;;;;;8266490;28;19925;-51
2021/07/05 15:28:59;;;;;;;;;;;23.50;44.90;;;;;;8261057;28;19914;-51
2021/07/05 15:32:59;;;;;;;;;;;23.50;45.10;;;;;;8262088;28;19913;-52
2021/07/05 15:37:00;;;;;;;;;;;23.50;45.00;;;;;;8261545;28;19961;-52
2021/07/05 15:41:00;;;;;;;;;;;23.50;44.80;;;;;;8266148;28;19910;-52
2021/07/05 15:45:01;;;;;;;;;;;23.50;44.90;;;;;;8261555;28;20009;-49
2021/07/05 15:49:02;;;;;;;;;;;23.50;45.20;;;;;;8261224;28;19960;-50
2021/07/05 15:53:03;;;;;;;;;;;23.50;45.10;;;;;;8261434;28;19924;-50
2021/07/05 15:57:04;;;;;;;;;;;23.50;45.20;;;;;;8262573;28;19910;-50
2021/07/05 16:01:04;;;;;;;;;;;23.50;45.20;;;;;;8233414;28;20000;-50
2021/07/05 16:05:07;;;;;;;;;;;23.50;45.20;;;;;;8253034;28;20005;-50
2021/07/05 16:09:09;;;;;;;;;;;23.60;45.30;;;;;;8261518;28;19910;-51
2021/07/05 16:13:10;;;;;;;;;;;23.60;45.30;;;;;;8260577;28;20355;-52
2021/07/05 16:17:11;;;;;;;;;;;23.50;45.00;;;;;;8265970;28;19965;-51
2021/07/05 16:21:11;;;;;;;;;;;23.60;45.00;;;;;;8261297;28;19917;-50
2021/07/05 16:25:12;;;;;;;;;;;23.60;45.10;;;;;;8260732;28;20119;-49
2021/07/05 16:29:13;;;;;;;;;;;23.60;45.00;;;;;;8261476;28;20308;-52
2021/07/05 16:33:13;;;;;;;;;;;23.60;44.90;;;;;;8265603;28;19913;-50
2021/07/05 16:37:14;;;;;;;;;;;23.50;45.00;;;;;;8260871;28;19948;-50
2021/07/05 16:41:14;;;;;;;;;;;23.50;45.10;;;;;;8260958;28;19914;-50
2021/07/05 16:45:15;;;;;;;;;;;23.50;45.10;;;;;;8267320;28;19941;-49
2021/07/05 16:49:19;;;;;;;;;;;23.60;45.30;;;;;;8266613;28;19913;-53
2021/07/05 16:53:20;;;;;;;;;;;23.50;45.10;;;;;;8271564;28;19932;-50
2021/07/05 16:57:20;;;;;;;;;;;23.60;45.00;;;;;;8266892;28;19914;-51
2021/07/05 17:01:22;;;;;;;;;;;23.50;44.90;;;;;;8266339;28;19914;-51
2021/07/05 17:05:25;;;;;;;;;;;23.60;45.00;;;;;;8266206;28;20379;-52
2021/07/05 17:09:25;;;;;;;;;;;23.50;45.00;;;;;;8270968;28;19975;-48
2021/07/05 17:13:35;;;;;;;;;;;23.50;45.10;;;;;;8265965;28;19913;-49
2021/07/05 17:17:36;;;;;;;;;;;23.50;45.10;;;;;;8266354;28;19913;-48
2021/07/05 17:21:36;;;;;;;;;;;23.50;45.30;;;;;;8266316;28;20042;-49
2021/07/05 17:25:37;;;;;;;;;;;23.50;45.30;;;;;;8265600;28;20013;-49
2021/07/05 17:29:37;;;;;;;;;;;23.50;45.30;;;;;;8270314;28;19917;-53
2021/07/05 17:33:39;;;;;;;;;;;23.50;45.10;;;;;;8266123;28;19913;-49
2021/07/05 17:37:41;;;;;;;;;;;23.50;45.20;;;;;;8265612;28;19960;-50
2021/07/05 17:41:42;;;;;;;;;;;23.50;45.40;;;;;;8265559;28;19913;-50
2021/07/05 17:45:42;;;;;;;;;;;23.50;45.50;;;;;;8269524;28;19924;-49
2021/07/05 17:49:43;;;;;;;;;;;23.50;45.70;;;;;;8264859;28;20293;-49
2021/07/05 17:53:44;;;;;;;;;;;23.50;45.70;;;;;;8264921;28;19925;-49
2021/07/05 17:57:45;;;;;;;;;;;23.50;45.80;;;;;;8264572;28;19920;-49
2021/07/05 18:01:45;;;;;;;;;;;23.50;45.40;;;;;;8268759;28;19941;-49
2021/07/05 18:05:46;;;;;;;;;;;23.50;45.30;;;;;;8265066;28;19922;-48
2021/07/05 18:09:48;;;;;;;;;;;23.50;45.40;;;;;;8265485;28;19914;-49
2021/07/05 18:13:48;;;;;;;;;;;23.50;45.30;;;;;;8278913;28;19914;-48
2021/07/05 18:17:49;;;;;;;;;;;23.50;45.30;;;;;;8264882;28;22240;-49
2021/07/05 18:21:50;;;;;;;;;;;23.50;45.30;;;;;;8268707;28;19968;-49
2021/07/05 18:25:53;;;;;;;;;;;23.50;45.20;;;;;;8263522;28;19968;-48
2021/07/05 18:29:54;;;;;;;;;;;23.50;45.30;;;;;;8264171;28;19937;-49
2021/07/05 18:33:57;;;;;;;;;;;23.50;45.30;;;;;;8263600;28;19910;-50
2021/07/05 18:37:58;;;;;;;;;;;23.50;45.30;;;;;;8267613;28;19914;-48
2021/07/05 18:41:59;;;;;;;;;;;23.50;45.50;;;;;;8263733;28;19953;-50
2021/07/05 18:46:00;;;;;;;;;;;23.50;45.30;;;;;;8263515;28;20372;-52
2021/07/05 18:50:00;;;;;;;;;;;23.50;45.60;;;;;;8262532;28;19914;-49
2021/07/05 18:54:00;;;;;;;;;;;23.50;45.60;;;;;;8263649;28;19964;-48
2021/07/05 18:58:01;;;;;;;;;;;23.50;45.50;;;;;;8267200;28;19960;-48
2021/07/05 19:02:06;;;;;;;;;;;23.50;45.40;;;;;;8263004;28;19918;-49
2021/07/05 19:06:08;;;;;;;;;;;23.50;45.50;;;;;;8261390;28;19932;-47
2021/07/05 19:10:10;;;;;;;;;;;23.50;45.40;;;;;;8262039;28;19920;-47
2021/07/05 19:14:10;;;;;;;;;;;23.40;45.30;;;;;;8267377;28;19958;-48
2021/07/05 19:18:10;;;;;;;;;;;23.50;45.60;;;;;;8262639;28;19921;-48
2021/07/05 19:22:11;;;;;;;;;;;23.50;45.60;;;;;;8261932;28;19941;-52
2021/07/05 19:26:12;;;;;;;;;;;23.50;45.50;;;;;;8252418;28;19933;-48
2021/07/05 19:30:13;;;;;;;;;;;23.40;45.50;;;;;;8249928;28;20326;-53
2021/07/05 19:34:13;;;;;;;;;;;23.40;45.50;;;;;;8263804;28;19921;-50
2021/07/05 19:38:14;;;;;;;;;;;23.40;45.60;;;;;;8262274;28;20000;-49
2021/07/05 19:42:14;;;;;;;;;;;23.40;45.50;;;;;;8262027;28;19913;-49
2021/07/05 19:46:15;;;;;;;;;;;23.40;45.40;;;;;;8261259;28;19972;-48
2021/07/05 19:50:15;;;;;;;;;;;23.40;45.40;;;;;;8266005;28;19980;-49
2021/07/05 19:54:16;;;;;;;;;;;23.40;45.40;;;;;;8261609;28;19960;-48
2021/07/05 19:58:16;;;;;;;;;;;23.40;45.30;;;;;;8261424;28;19925;-48
2021/07/05 20:02:17;;;;;;;;;;;23.40;45.30;;;;;;8261793;28;19914;-49
2021/07/05 20:06:17;;;;;;;;;;;23.40;45.30;;;;;;8266067;28;20012;-50
2021/07/05 20:10:17;;;;;;;;;;;23.40;45.30;;;;;;8260508;28;19920;-49
2021/07/05 20:14:18;;;;;;;;;;;23.40;45.30;;;;;;8261245;28;19913;-49
2021/07/05 20:18:18;;;;;;;;;;;23.40;45.20;;;;;;8267284;28;20003;-49
2021/07/05 20:22:19;;;;;;;;;;;23.40;45.30;;;;;;8267503;28;19999;-50
2021/07/05 20:26:19;;;;;;;;;;;23.40;45.30;;;;;;8272032;28;20426;-50
2021/07/05 20:30:20;;;;;;;;;;;23.40;45.20;;;;;;8267425;28;19937;-49
2021/07/05 20:34:20;;;;;;;;;;;23.40;45.20;;;;;;8267255;28;19920;-48
2021/07/05 20:38:21;;;;;;;;;;;23.40;45.30;;;;;;8267509;28;19945;-49
2021/07/05 20:42:21;;;;;;;;;;;23.40;45.20;;;;;;8271796;28;19914;-48
2021/07/05 20:46:23;;;;;;;;;;;23.40;45.30;;;;;;8266846;28;19929;-48
2021/07/05 20:50:26;;;;;;;;;;;23.30;45.20;;;;;;8267167;28;19924;-49
2021/07/05 20:54:26;;;;;;;;;;;23.40;45.20;;;;;;8266978;28;20322;-49
2021/07/05 20:58:26;;;;;;;;;;;23.40;45.30;;;;;;8270988;28;19920;-48
2021/07/05 21:02:30;;;;;;;;;;;23.40;45.20;;;;;;8267262;28;19921;-48
2021/07/05 21:06:31;;;;;;;;;;;23.40;45.20;;;;;;8266682;28;19921;-49
2021/07/05 21:10:31;;;;;;;;;;;23.40;45.20;;;;;;8265989;28;19913;-49
2021/07/05 21:14:32;;;;;;;;;;;23.40;45.20;;;;;;8266353;28;19926;-48
2021/07/05 21:18:32;;;;;;;;;;;23.40;45.20;;;;;;8270688;28;20082;-51
2021/07/05 21:22:33;;;;;;;;;;;23.40;45.20;;;;;;8261317;28;19914;-49
2021/07/05 21:26:33;;;;;;;;;;;23.40;45.20;;;;;;8245694;28;19995;-49
2021/07/05 21:30:34;;;;;;;;;;;23.40;45.20;;;;;;8265458;28;19914;-49
2021/07/05 21:34:34;;;;;;;;;;;23.30;45.20;;;;;;8269903;28;20470;-48
2021/07/05 21:38:35;;;;;;;;;;;23.30;45.10;;;;;;8265865;28;19921;-47
2021/07/05 21:42:35;;;;;;;;;;;23.30;45.20;;;;;;8265760;28;20367;-50
2021/07/05 21:46:36;;;;;;;;;;;23.30;45.20;;;;;;8265017;28;19969;-49
2021/07/05 21:50:37;;;;;;;;;;;23.30;45.20;;;;;;8269630;28;19914;-49
2021/07/05 21:54:37;;;;;;;;;;;23.30;45.20;;;;;;8266277;28;20383;-49
2021/07/05 21:58:37;;;;;;;;;;;23.30;45.20;;;;;;8264612;28;19914;-48
2021/07/05 22:02:38;;;;;;;;;;;23.30;45.20;;;;;;8250949;28;19921;-48
2021/07/05 22:06:39;;;;;;;;;;;23.30;45.20;;;;;;8254100;28;20008;-48
2021/07/05 22:10:39;;;;;;;;;;;23.30;45.20;;;;;;8268555;28;19956;-49
2021/07/05 22:14:40;;;;;;;;;;;23.30;45.20;;;;;;8239246;28;19920;-49
2021/07/05 22:18:40;;;;;;;;;;;23.30;45.20;;;;;;8248572;28;20017;-47
2021/07/05 22:22:41;;;;;;;;;;;23.30;45.20;;;;;;8263935;28;19914;-48
2021/07/05 22:26:41;;;;;;;;;;;23.30;45.20;;;;;;8268760;28;19918;-52
2021/07/05 22:30:42;;;;;;;;;;;23.30;45.20;;;;;;8264083;28;19914;-52
2021/07/05 22:34:42;;;;;;;;;;;23.30;45.20;;;;;;8263488;28;19920;-51
2021/07/05 22:38:43;;;;;;;;;;;23.30;45.20;;;;;;8263722;28;19924;-50
2021/07/05 22:42:45;;;;;;;;;;;23.30;45.20;;;;;;8264698;28;19964;-48
2021/07/05 22:46:45;;;;;;;;;;;23.30;45.20;;;;;;8235057;28;19945;-48
2021/07/05 22:50:45;;;;;;;;;;;23.30;45.20;;;;;;8254982;28;19914;-48
2021/07/05 22:54:46;;;;;;;;;;;23.20;45.20;;;;;;8263245;28;19916;-50
2021/07/05 22:58:46;;;;;;;;;;;23.20;45.70;;;;;;8262651;28;19914;-49
2021/07/05 23:02:48;;;;;;;;;;;23.20;45.10;;;;;;8267629;28;19955;-49
2021/07/05 23:06:49;;;;;;;;;;;23.20;45.20;;;;;;8236471;28;19921;-49
2021/07/05 23:10:50;;;;;;;;;;;23.20;45.20;;;;;;8247656;28;19921;-50
2021/07/05 23:14:50;;;;;;;;;;;23.20;45.20;;;;;;8262937;28;19914;-48
2021/07/05 23:18:51;;;;;;;;;;;23.20;45.20;;;;;;8266916;28;19957;-49
2021/07/05 23:22:51;;;;;;;;;;;23.20;45.20;;;;;;8262247;28;19921;-49